sensor_id;sensor_type;location;lat;lon;timestamp;P1;durP1;ratioP1;P2;durP2;ratioP2
15340;SDS011;7770;52.158;5.372;2023-11-19T00:01:01;23.83;;;10.17;;
15340;SDS011;7770;52.158;5.372;2023-11-19T00:03:50;23.10;;;9.30;;
15340;SDS011;7770;52.158;5.372;2023-11-19T00:06:36;17.60;;;8.50;;
15340;SDS011;7770;52.158;5.372;2023-11-19T00:09:22;18.57;;;8.70;;
15340;SDS011;7770;52.158;5.372;2023-11-19T00:12:10;18.90;;;8.37;;
15340;SDS011;7770;52.158;5.372;2023-11-19T00:14:55;20.93;;;9.13;;
15340;SDS011;7770;52.158;5.372;2023-11-19T00:17:42;21.53;;;8.40;;
15340;SDS011;7770;52.158;5.372;2023-11-19T00:20:30;18.77;;;8.37;;
15340;SDS011;7770;52.158;5.372;2023-11-19T00:23:16;21.00;;;8.50;;
15340;SDS011;7770;52.158;5.372;2023-11-19T00:26:02;17.77;;;7.97;;
15340;SDS011;7770;52.158;5.372;2023-11-19T00:28:50;19.03;;;7.93;;
15340;SDS011;7770;52.158;5.372;2023-11-19T00:31:36;17.50;;;7.90;;
15340;SDS011;7770;52.158;5.372;2023-11-19T00:34:22;22.00;;;7.83;;
15340;SDS011;7770;52.158;5.372;2023-11-19T00:37:07;22.20;;;7.87;;
15340;SDS011;7770;52.158;5.372;2023-11-19T00:39:54;19.30;;;7.67;;
15340;SDS011;7770;52.158;5.372;2023-11-19T00:42:41;23.53;;;8.10;;
15340;SDS011;7770;52.158;5.372;2023-11-19T00:45:27;22.97;;;8.20;;
15340;SDS011;7770;52.158;5.372;2023-11-19T00:48:13;24.37;;;8.23;;
15340;SDS011;7770;52.158;5.372;2023-11-19T00:50:59;27.50;;;8.80;;
15340;SDS011;7770;52.158;5.372;2023-11-19T00:53:45;28.23;;;8.07;;
15340;SDS011;7770;52.158;5.372;2023-11-19T00:56:31;30.37;;;8.37;;
15340;SDS011;7770;52.158;5.372;2023-11-19T00:59:16;33.37;;;8.47;;
15340;SDS011;7770;52.158;5.372;2023-11-19T01:02:02;25.67;;;7.43;;
15340;SDS011;7770;52.158;5.372;2023-11-19T01:04:48;26.73;;;8.20;;
15340;SDS011;7770;52.158;5.372;2023-11-19T01:07:34;31.07;;;8.60;;
15340;SDS011;7770;52.158;5.372;2023-11-19T01:10:20;31.20;;;7.47;;
15340;SDS011;7770;52.158;5.372;2023-11-19T01:13:06;25.83;;;7.90;;
15340;SDS011;7770;52.158;5.372;2023-11-19T01:15:52;28.50;;;8.30;;
15340;SDS011;7770;52.158;5.372;2023-11-19T01:18:38;31.03;;;8.07;;
15340;SDS011;7770;52.158;5.372;2023-11-19T01:21:24;26.37;;;8.20;;
15340;SDS011;7770;52.158;5.372;2023-11-19T01:24:10;26.80;;;7.97;;
15340;SDS011;7770;52.158;5.372;2023-11-19T01:26:58;26.13;;;8.67;;
15340;SDS011;7770;52.158;5.372;2023-11-19T01:29:45;28.80;;;7.63;;
15340;SDS011;7770;52.158;5.372;2023-11-19T01:32:31;33.63;;;7.70;;
15340;SDS011;7770;52.158;5.372;2023-11-19T01:35:17;32.93;;;8.53;;
15340;SDS011;7770;52.158;5.372;2023-11-19T01:38:03;35.30;;;9.30;;
15340;SDS011;7770;52.158;5.372;2023-11-19T01:40:48;45.10;;;9.30;;
15340;SDS011;7770;52.158;5.372;2023-11-19T01:43:38;37.37;;;8.83;;
15340;SDS011;7770;52.158;5.372;2023-11-19T01:46:26;38.97;;;9.60;;
15340;SDS011;7770;52.158;5.372;2023-11-19T01:49:14;37.93;;;8.93;;
15340;SDS011;7770;52.158;5.372;2023-11-19T01:52:00;31.90;;;8.43;;
15340;SDS011;7770;52.158;5.372;2023-11-19T01:54:46;37.30;;;8.73;;
15340;SDS011;7770;52.158;5.372;2023-11-19T01:57:32;39.13;;;9.53;;
15340;SDS011;7770;52.158;5.372;2023-11-19T02:00:19;38.00;;;9.40;;
15340;SDS011;7770;52.158;5.372;2023-11-19T02:03:06;38.10;;;9.00;;
15340;SDS011;7770;52.158;5.372;2023-11-19T02:05:53;36.40;;;8.73;;
15340;SDS011;7770;52.158;5.372;2023-11-19T02:08:39;38.83;;;9.37;;
15340;SDS011;7770;52.158;5.372;2023-11-19T02:11:25;43.60;;;8.60;;
15340;SDS011;7770;52.158;5.372;2023-11-19T02:14:15;42.47;;;9.10;;
15340;SDS011;7770;52.158;5.372;2023-11-19T02:17:01;36.37;;;8.53;;
15340;SDS011;7770;52.158;5.372;2023-11-19T02:19:47;40.80;;;9.43;;
15340;SDS011;7770;52.158;5.372;2023-11-19T02:22:33;42.67;;;9.23;;
15340;SDS011;7770;52.158;5.372;2023-11-19T02:25:24;39.83;;;8.77;;
15340;SDS011;7770;52.158;5.372;2023-11-19T02:28:17;40.13;;;8.90;;
15340;SDS011;7770;52.158;5.372;2023-11-19T02:31:04;42.67;;;9.27;;
15340;SDS011;7770;52.158;5.372;2023-11-19T02:33:50;47.10;;;9.93;;
15340;SDS011;7770;52.158;5.372;2023-11-19T02:36:37;40.50;;;9.20;;
15340;SDS011;7770;52.158;5.372;2023-11-19T02:39:22;39.43;;;8.57;;
15340;SDS011;7770;52.158;5.372;2023-11-19T02:42:08;44.53;;;10.50;;
15340;SDS011;7770;52.158;5.372;2023-11-19T02:44:55;35.70;;;9.37;;
15340;SDS011;7770;52.158;5.372;2023-11-19T02:47:41;46.47;;;9.43;;
15340;SDS011;7770;52.158;5.372;2023-11-19T02:50:27;46.83;;;10.23;;
15340;SDS011;7770;52.158;5.372;2023-11-19T02:53:13;39.90;;;9.60;;
15340;SDS011;7770;52.158;5.372;2023-11-19T02:55:59;47.93;;;11.03;;
15340;SDS011;7770;52.158;5.372;2023-11-19T02:59:00;47.87;;;10.40;;
15340;SDS011;7770;52.158;5.372;2023-11-19T03:02:00;51.47;;;9.83;;
15340;SDS011;7770;52.158;5.372;2023-11-19T03:04:46;49.40;;;10.17;;
15340;SDS011;7770;52.158;5.372;2023-11-19T03:07:32;48.13;;;12.07;;
15340;SDS011;7770;52.158;5.372;2023-11-19T03:10:18;51.30;;;11.47;;
15340;SDS011;7770;52.158;5.372;2023-11-19T03:13:04;55.07;;;10.70;;
15340;SDS011;7770;52.158;5.372;2023-11-19T03:15:50;45.30;;;10.67;;
15340;SDS011;7770;52.158;5.372;2023-11-19T03:18:36;45.60;;;10.37;;
15340;SDS011;7770;52.158;5.372;2023-11-19T03:21:30;45.40;;;10.63;;
15340;SDS011;7770;52.158;5.372;2023-11-19T03:24:19;44.70;;;10.43;;
15340;SDS011;7770;52.158;5.372;2023-11-19T03:27:06;41.13;;;9.67;;
15340;SDS011;7770;52.158;5.372;2023-11-19T03:29:52;44.90;;;10.23;;
15340;SDS011;7770;52.158;5.372;2023-11-19T03:32:38;48.27;;;10.67;;
15340;SDS011;7770;52.158;5.372;2023-11-19T03:35:24;46.73;;;11.10;;
15340;SDS011;7770;52.158;5.372;2023-11-19T03:38:10;36.63;;;9.77;;
15340;SDS011;7770;52.158;5.372;2023-11-19T03:40:56;45.53;;;10.13;;
15340;SDS011;7770;52.158;5.372;2023-11-19T03:43:41;42.43;;;10.10;;
15340;SDS011;7770;52.158;5.372;2023-11-19T03:46:27;50.10;;;11.03;;
15340;SDS011;7770;52.158;5.372;2023-11-19T03:49:15;43.43;;;10.63;;
15340;SDS011;7770;52.158;5.372;2023-11-19T03:52:01;49.40;;;10.67;;
15340;SDS011;7770;52.158;5.372;2023-11-19T03:54:47;51.60;;;11.20;;
15340;SDS011;7770;52.158;5.372;2023-11-19T03:57:32;44.60;;;9.90;;
15340;SDS011;7770;52.158;5.372;2023-11-19T04:00:18;52.97;;;11.07;;
15340;SDS011;7770;52.158;5.372;2023-11-19T04:03:06;49.87;;;10.63;;
15340;SDS011;7770;52.158;5.372;2023-11-19T04:05:52;45.07;;;10.30;;
15340;SDS011;7770;52.158;5.372;2023-11-19T04:08:38;58.87;;;10.93;;
15340;SDS011;7770;52.158;5.372;2023-11-19T04:11:23;48.40;;;10.53;;
15340;SDS011;7770;52.158;5.372;2023-11-19T04:14:09;48.60;;;10.87;;
15340;SDS011;7770;52.158;5.372;2023-11-19T04:16:55;52.53;;;10.70;;
15340;SDS011;7770;52.158;5.372;2023-11-19T04:19:41;51.70;;;10.73;;
15340;SDS011;7770;52.158;5.372;2023-11-19T04:22:27;49.57;;;11.40;;
15340;SDS011;7770;52.158;5.372;2023-11-19T04:25:12;45.57;;;10.70;;
15340;SDS011;7770;52.158;5.372;2023-11-19T04:28:00;54.20;;;11.60;;
15340;SDS011;7770;52.158;5.372;2023-11-19T04:30:46;48.67;;;10.30;;
15340;SDS011;7770;52.158;5.372;2023-11-19T04:33:32;53.77;;;10.93;;
15340;SDS011;7770;52.158;5.372;2023-11-19T04:36:18;44.13;;;10.57;;
15340;SDS011;7770;52.158;5.372;2023-11-19T04:39:04;48.70;;;10.57;;
15340;SDS011;7770;52.158;5.372;2023-11-19T04:41:57;54.23;;;10.63;;
15340;SDS011;7770;52.158;5.372;2023-11-19T04:44:43;49.47;;;10.97;;
15340;SDS011;7770;52.158;5.372;2023-11-19T04:47:29;50.40;;;10.83;;
15340;SDS011;7770;52.158;5.372;2023-11-19T04:50:15;47.33;;;10.67;;
15340;SDS011;7770;52.158;5.372;2023-11-19T04:53:01;43.27;;;10.77;;
15340;SDS011;7770;52.158;5.372;2023-11-19T04:55:48;55.13;;;11.40;;
15340;SDS011;7770;52.158;5.372;2023-11-19T04:58:34;63.60;;;12.20;;
15340;SDS011;7770;52.158;5.372;2023-11-19T05:01:21;49.57;;;11.30;;
15340;SDS011;7770;52.158;5.372;2023-11-19T05:04:07;51.20;;;11.67;;
15340;SDS011;7770;52.158;5.372;2023-11-19T05:06:53;46.70;;;11.40;;
15340;SDS011;7770;52.158;5.372;2023-11-19T05:09:39;55.40;;;10.70;;
15340;SDS011;7770;52.158;5.372;2023-11-19T05:12:25;51.70;;;10.33;;
15340;SDS011;7770;52.158;5.372;2023-11-19T05:15:11;53.30;;;10.83;;
15340;SDS011;7770;52.158;5.372;2023-11-19T05:17:57;48.30;;;10.60;;
15340;SDS011;7770;52.158;5.372;2023-11-19T05:20:43;47.67;;;9.43;;
15340;SDS011;7770;52.158;5.372;2023-11-19T05:23:29;46.57;;;9.90;;
15340;SDS011;7770;52.158;5.372;2023-11-19T05:26:21;47.23;;;11.43;;
15340;SDS011;7770;52.158;5.372;2023-11-19T05:29:08;45.90;;;10.63;;
15340;SDS011;7770;52.158;5.372;2023-11-19T05:31:54;49.17;;;10.23;;
15340;SDS011;7770;52.158;5.372;2023-11-19T05:34:40;48.23;;;9.73;;
15340;SDS011;7770;52.158;5.372;2023-11-19T05:37:26;49.03;;;11.30;;
15340;SDS011;7770;52.158;5.372;2023-11-19T05:40:12;46.77;;;10.87;;
15340;SDS011;7770;52.158;5.372;2023-11-19T05:43:01;44.17;;;9.53;;
15340;SDS011;7770;52.158;5.372;2023-11-19T05:45:47;40.37;;;9.97;;
15340;SDS011;7770;52.158;5.372;2023-11-19T05:48:33;50.30;;;10.57;;
15340;SDS011;7770;52.158;5.372;2023-11-19T05:51:19;40.43;;;9.87;;
15340;SDS011;7770;52.158;5.372;2023-11-19T05:54:06;47.90;;;10.07;;
15340;SDS011;7770;52.158;5.372;2023-11-19T05:56:55;48.50;;;10.10;;
15340;SDS011;7770;52.158;5.372;2023-11-19T05:59:42;51.23;;;10.27;;
15340;SDS011;7770;52.158;5.372;2023-11-19T06:02:29;40.70;;;9.30;;
15340;SDS011;7770;52.158;5.372;2023-11-19T06:05:15;46.87;;;9.87;;
15340;SDS011;7770;52.158;5.372;2023-11-19T06:08:00;49.30;;;10.20;;
15340;SDS011;7770;52.158;5.372;2023-11-19T06:10:46;45.30;;;10.70;;
15340;SDS011;7770;52.158;5.372;2023-11-19T06:13:35;45.03;;;10.23;;
15340;SDS011;7770;52.158;5.372;2023-11-19T06:16:21;44.00;;;10.37;;
15340;SDS011;7770;52.158;5.372;2023-11-19T06:19:08;42.77;;;10.70;;
15340;SDS011;7770;52.158;5.372;2023-11-19T06:21:55;45.83;;;9.97;;
15340;SDS011;7770;52.158;5.372;2023-11-19T06:24:41;44.23;;;10.73;;
15340;SDS011;7770;52.158;5.372;2023-11-19T06:27:27;54.93;;;11.27;;
15340;SDS011;7770;52.158;5.372;2023-11-19T06:30:12;50.90;;;9.70;;
15340;SDS011;7770;52.158;5.372;2023-11-19T06:32:58;45.47;;;9.97;;
15340;SDS011;7770;52.158;5.372;2023-11-19T06:35:45;46.63;;;9.83;;
15340;SDS011;7770;52.158;5.372;2023-11-19T06:38:31;43.00;;;9.83;;
15340;SDS011;7770;52.158;5.372;2023-11-19T06:41:16;45.93;;;9.93;;
15340;SDS011;7770;52.158;5.372;2023-11-19T06:44:02;45.03;;;9.60;;
15340;SDS011;7770;52.158;5.372;2023-11-19T06:46:49;49.80;;;10.40;;
15340;SDS011;7770;52.158;5.372;2023-11-19T06:49:36;40.13;;;9.83;;
15340;SDS011;7770;52.158;5.372;2023-11-19T06:52:22;42.87;;;9.67;;
15340;SDS011;7770;52.158;5.372;2023-11-19T06:55:09;43.87;;;9.20;;
15340;SDS011;7770;52.158;5.372;2023-11-19T06:57:54;43.67;;;9.80;;
15340;SDS011;7770;52.158;5.372;2023-11-19T07:00:40;44.93;;;10.33;;
15340;SDS011;7770;52.158;5.372;2023-11-19T07:03:26;46.53;;;10.07;;
15340;SDS011;7770;52.158;5.372;2023-11-19T07:06:12;48.43;;;9.63;;
15340;SDS011;7770;52.158;5.372;2023-11-19T07:08:59;48.23;;;10.47;;
15340;SDS011;7770;52.158;5.372;2023-11-19T07:11:45;48.33;;;10.17;;
15340;SDS011;7770;52.158;5.372;2023-11-19T07:14:30;46.63;;;9.47;;
15340;SDS011;7770;52.158;5.372;2023-11-19T07:17:16;41.90;;;10.13;;
15340;SDS011;7770;52.158;5.372;2023-11-19T07:20:03;43.83;;;9.50;;
15340;SDS011;7770;52.158;5.372;2023-11-19T07:22:49;46.30;;;10.00;;
15340;SDS011;7770;52.158;5.372;2023-11-19T07:25:36;42.60;;;10.60;;
15340;SDS011;7770;52.158;5.372;2023-11-19T07:28:22;46.13;;;10.20;;
15340;SDS011;7770;52.158;5.372;2023-11-19T07:31:08;49.07;;;9.57;;
15340;SDS011;7770;52.158;5.372;2023-11-19T07:33:54;47.70;;;10.70;;
15340;SDS011;7770;52.158;5.372;2023-11-19T07:36:40;49.67;;;10.37;;
15340;SDS011;7770;52.158;5.372;2023-11-19T07:39:26;42.77;;;8.87;;
15340;SDS011;7770;52.158;5.372;2023-11-19T07:42:11;43.20;;;10.30;;
15340;SDS011;7770;52.158;5.372;2023-11-19T07:44:57;45.63;;;10.23;;
15340;SDS011;7770;52.158;5.372;2023-11-19T07:47:43;45.63;;;10.13;;
15340;SDS011;7770;52.158;5.372;2023-11-19T07:50:32;43.27;;;9.13;;
15340;SDS011;7770;52.158;5.372;2023-11-19T07:53:18;40.83;;;9.67;;
15340;SDS011;7770;52.158;5.372;2023-11-19T07:56:05;41.27;;;9.23;;
15340;SDS011;7770;52.158;5.372;2023-11-19T07:58:51;47.97;;;10.37;;
15340;SDS011;7770;52.158;5.372;2023-11-19T08:01:38;47.13;;;9.50;;
15340;SDS011;7770;52.158;5.372;2023-11-19T08:04:23;42.40;;;9.73;;
15340;SDS011;7770;52.158;5.372;2023-11-19T08:07:09;38.50;;;9.50;;
15340;SDS011;7770;52.158;5.372;2023-11-19T08:09:55;37.40;;;8.43;;
15340;SDS011;7770;52.158;5.372;2023-11-19T08:12:41;39.10;;;9.07;;
15340;SDS011;7770;52.158;5.372;2023-11-19T08:15:27;44.57;;;10.43;;
15340;SDS011;7770;52.158;5.372;2023-11-19T08:18:13;38.90;;;9.80;;
15340;SDS011;7770;52.158;5.372;2023-11-19T08:20:59;35.03;;;9.77;;
15340;SDS011;7770;52.158;5.372;2023-11-19T08:23:46;43.37;;;9.80;;
15340;SDS011;7770;52.158;5.372;2023-11-19T08:26:31;37.30;;;9.80;;
15340;SDS011;7770;52.158;5.372;2023-11-19T08:29:17;43.83;;;10.17;;
15340;SDS011;7770;52.158;5.372;2023-11-19T08:32:03;40.20;;;9.53;;
15340;SDS011;7770;52.158;5.372;2023-11-19T08:34:49;44.80;;;9.90;;
15340;SDS011;7770;52.158;5.372;2023-11-19T08:37:35;39.97;;;9.60;;
15340;SDS011;7770;52.158;5.372;2023-11-19T08:40:22;40.43;;;9.97;;
15340;SDS011;7770;52.158;5.372;2023-11-19T08:43:08;37.47;;;9.33;;
15340;SDS011;7770;52.158;5.372;2023-11-19T08:45:54;35.57;;;8.93;;
15340;SDS011;7770;52.158;5.372;2023-11-19T08:48:40;39.10;;;8.47;;
15340;SDS011;7770;52.158;5.372;2023-11-19T08:51:26;36.83;;;10.03;;
15340;SDS011;7770;52.158;5.372;2023-11-19T08:54:13;34.73;;;9.43;;
15340;SDS011;7770;52.158;5.372;2023-11-19T08:56:59;42.20;;;9.53;;
15340;SDS011;7770;52.158;5.372;2023-11-19T08:59:45;36.63;;;9.50;;
15340;SDS011;7770;52.158;5.372;2023-11-19T09:02:31;35.43;;;9.60;;
15340;SDS011;7770;52.158;5.372;2023-11-19T09:05:17;36.10;;;9.83;;
15340;SDS011;7770;52.158;5.372;2023-11-19T09:08:03;39.73;;;9.27;;
15340;SDS011;7770;52.158;5.372;2023-11-19T09:10:50;34.70;;;8.83;;
15340;SDS011;7770;52.158;5.372;2023-11-19T09:13:35;38.83;;;9.07;;
15340;SDS011;7770;52.158;5.372;2023-11-19T09:16:21;39.83;;;10.20;;
15340;SDS011;7770;52.158;5.372;2023-11-19T09:19:07;36.00;;;9.87;;
15340;SDS011;7770;52.158;5.372;2023-11-19T09:21:53;41.80;;;14.03;;
15340;SDS011;7770;52.158;5.372;2023-11-19T09:24:39;44.43;;;12.60;;
15340;SDS011;7770;52.158;5.372;2023-11-19T09:27:25;40.20;;;11.67;;
15340;SDS011;7770;52.158;5.372;2023-11-19T09:30:11;39.70;;;11.47;;
15340;SDS011;7770;52.158;5.372;2023-11-19T09:32:58;39.73;;;11.37;;
15340;SDS011;7770;52.158;5.372;2023-11-19T09:35:45;39.53;;;9.43;;
15340;SDS011;7770;52.158;5.372;2023-11-19T09:38:30;37.30;;;10.00;;
15340;SDS011;7770;52.158;5.372;2023-11-19T09:41:16;36.03;;;8.93;;
15340;SDS011;7770;52.158;5.372;2023-11-19T09:44:04;41.63;;;10.00;;
15340;SDS011;7770;52.158;5.372;2023-11-19T09:46:50;39.30;;;10.30;;
15340;SDS011;7770;52.158;5.372;2023-11-19T09:49:37;34.27;;;9.23;;
15340;SDS011;7770;52.158;5.372;2023-11-19T09:52:23;35.47;;;8.80;;
15340;SDS011;7770;52.158;5.372;2023-11-19T09:55:10;37.53;;;9.17;;
15340;SDS011;7770;52.158;5.372;2023-11-19T09:57:56;38.97;;;8.87;;
15340;SDS011;7770;52.158;5.372;2023-11-19T10:00:46;32.23;;;8.47;;
15340;SDS011;7770;52.158;5.372;2023-11-19T10:03:34;35.93;;;8.80;;
15340;SDS011;7770;52.158;5.372;2023-11-19T10:06:23;35.77;;;8.53;;
15340;SDS011;7770;52.158;5.372;2023-11-19T10:09:12;38.10;;;8.80;;
15340;SDS011;7770;52.158;5.372;2023-11-19T10:12:00;37.80;;;8.93;;
15340;SDS011;7770;52.158;5.372;2023-11-19T10:14:47;35.93;;;9.07;;
15340;SDS011;7770;52.158;5.372;2023-11-19T10:17:34;38.30;;;8.47;;
15340;SDS011;7770;52.158;5.372;2023-11-19T10:20:20;35.10;;;8.97;;
15340;SDS011;7770;52.158;5.372;2023-11-19T10:23:06;37.83;;;9.30;;
15340;SDS011;7770;52.158;5.372;2023-11-19T10:25:52;36.77;;;9.33;;
15340;SDS011;7770;52.158;5.372;2023-11-19T10:28:39;35.00;;;9.23;;
15340;SDS011;7770;52.158;5.372;2023-11-19T10:31:28;34.10;;;8.80;;
15340;SDS011;7770;52.158;5.372;2023-11-19T10:34:24;28.73;;;8.83;;
15340;SDS011;7770;52.158;5.372;2023-11-19T10:37:26;30.10;;;7.97;;
15340;SDS011;7770;52.158;5.372;2023-11-19T10:40:14;35.03;;;8.60;;
15340;SDS011;7770;52.158;5.372;2023-11-19T10:43:03;36.40;;;8.70;;
15340;SDS011;7770;52.158;5.372;2023-11-19T10:45:49;24.97;;;8.00;;
15340;SDS011;7770;52.158;5.372;2023-11-19T10:48:36;42.13;;;8.87;;
15340;SDS011;7770;52.158;5.372;2023-11-19T10:51:22;32.30;;;8.83;;
15340;SDS011;7770;52.158;5.372;2023-11-19T10:54:09;29.63;;;8.43;;
15340;SDS011;7770;52.158;5.372;2023-11-19T10:56:58;33.83;;;8.40;;
15340;SDS011;7770;52.158;5.372;2023-11-19T10:59:46;30.00;;;7.93;;
15340;SDS011;7770;52.158;5.372;2023-11-19T11:02:33;26.77;;;7.87;;
15340;SDS011;7770;52.158;5.372;2023-11-19T11:05:21;30.03;;;7.80;;
15340;SDS011;7770;52.158;5.372;2023-11-19T11:08:08;28.10;;;7.80;;
15340;SDS011;7770;52.158;5.372;2023-11-19T11:10:55;25.70;;;7.50;;
15340;SDS011;7770;52.158;5.372;2023-11-19T11:13:42;25.67;;;7.73;;
15340;SDS011;7770;52.158;5.372;2023-11-19T11:16:29;26.67;;;7.57;;
15340;SDS011;7770;52.158;5.372;2023-11-19T11:19:17;26.07;;;7.90;;
15340;SDS011;7770;52.158;5.372;2023-11-19T11:22:03;25.90;;;7.67;;
15340;SDS011;7770;52.158;5.372;2023-11-19T11:27:50;26.27;;;8.00;;
15340;SDS011;7770;52.158;5.372;2023-11-19T11:34:12;30.90;;;8.17;;
15340;SDS011;7770;52.158;5.372;2023-11-19T11:37:32;31.73;;;8.40;;
15340;SDS011;7770;52.158;5.372;2023-11-19T11:40:24;26.10;;;6.87;;
15340;SDS011;7770;52.158;5.372;2023-11-19T11:49:22;29.57;;;7.43;;
15340;SDS011;7770;52.158;5.372;2023-11-19T11:52:10;29.50;;;7.70;;
15340;SDS011;7770;52.158;5.372;2023-11-19T11:55:04;29.83;;;7.80;;
15340;SDS011;7770;52.158;5.372;2023-11-19T11:57:53;34.27;;;9.53;;
15340;SDS011;7770;52.158;5.372;2023-11-19T12:00:40;35.40;;;8.17;;
15340;SDS011;7770;52.158;5.372;2023-11-19T12:03:27;36.60;;;8.90;;
15340;SDS011;7770;52.158;5.372;2023-11-19T12:06:15;34.57;;;9.03;;
15340;SDS011;7770;52.158;5.372;2023-11-19T12:09:01;33.80;;;8.47;;
15340;SDS011;7770;52.158;5.372;2023-11-19T12:11:47;31.57;;;8.27;;
15340;SDS011;7770;52.158;5.372;2023-11-19T12:17:46;32.10;;;8.10;;
15340;SDS011;7770;52.158;5.372;2023-11-19T12:20:35;31.37;;;8.07;;
15340;SDS011;7770;52.158;5.372;2023-11-19T12:23:23;25.33;;;7.17;;
15340;SDS011;7770;52.158;5.372;2023-11-19T12:26:09;23.83;;;6.77;;
15340;SDS011;7770;52.158;5.372;2023-11-19T12:29:15;30.33;;;7.87;;
15340;SDS011;7770;52.158;5.372;2023-11-19T12:32:01;25.77;;;6.70;;
15340;SDS011;7770;52.158;5.372;2023-11-19T12:34:48;23.80;;;7.40;;
15340;SDS011;7770;52.158;5.372;2023-11-19T12:37:34;25.70;;;6.83;;
15340;SDS011;7770;52.158;5.372;2023-11-19T12:40:25;33.87;;;8.53;;
15340;SDS011;7770;52.158;5.372;2023-11-19T12:43:13;30.23;;;7.10;;
15340;SDS011;7770;52.158;5.372;2023-11-19T12:46:23;29.23;;;7.30;;
15340;SDS011;7770;52.158;5.372;2023-11-19T12:49:10;25.10;;;6.77;;
15340;SDS011;7770;52.158;5.372;2023-11-19T12:51:56;25.33;;;7.07;;
15340;SDS011;7770;52.158;5.372;2023-11-19T12:54:43;31.63;;;7.37;;
15340;SDS011;7770;52.158;5.372;2023-11-19T12:57:36;27.63;;;7.60;;
15340;SDS011;7770;52.158;5.372;2023-11-19T13:00:27;25.93;;;7.10;;
15340;SDS011;7770;52.158;5.372;2023-11-19T13:03:13;27.63;;;7.40;;
15340;SDS011;7770;52.158;5.372;2023-11-19T13:06:14;25.10;;;6.33;;
15340;SDS011;7770;52.158;5.372;2023-11-19T13:09:01;23.17;;;6.97;;
15340;SDS011;7770;52.158;5.372;2023-11-19T13:11:46;31.20;;;6.80;;
15340;SDS011;7770;52.158;5.372;2023-11-19T13:14:36;31.73;;;6.77;;
15340;SDS011;7770;52.158;5.372;2023-11-19T13:17:23;26.87;;;6.87;;
15340;SDS011;7770;52.158;5.372;2023-11-19T13:20:09;31.40;;;7.37;;
15340;SDS011;7770;52.158;5.372;2023-11-19T13:25:45;25.90;;;7.00;;
15340;SDS011;7770;52.158;5.372;2023-11-19T13:28:31;27.70;;;7.03;;
15340;SDS011;7770;52.158;5.372;2023-11-19T13:31:17;28.23;;;7.20;;
15340;SDS011;7770;52.158;5.372;2023-11-19T13:34:03;30.20;;;7.40;;
15340;SDS011;7770;52.158;5.372;2023-11-19T13:36:49;39.43;;;7.77;;
15340;SDS011;7770;52.158;5.372;2023-11-19T13:39:34;39.10;;;11.13;;
15340;SDS011;7770;52.158;5.372;2023-11-19T13:42:20;30.63;;;8.00;;
15340;SDS011;7770;52.158;5.372;2023-11-19T13:45:10;24.67;;;7.47;;
15340;SDS011;7770;52.158;5.372;2023-11-19T13:47:57;31.07;;;7.77;;
15340;SDS011;7770;52.158;5.372;2023-11-19T13:50:43;31.77;;;8.93;;
15340;SDS011;7770;52.158;5.372;2023-11-19T13:53:29;32.10;;;8.53;;
15340;SDS011;7770;52.158;5.372;2023-11-19T13:56:15;28.80;;;7.60;;
15340;SDS011;7770;52.158;5.372;2023-11-19T13:59:02;32.33;;;8.60;;
15340;SDS011;7770;52.158;5.372;2023-11-19T14:01:48;36.07;;;9.47;;
15340;SDS011;7770;52.158;5.372;2023-11-19T14:04:34;37.77;;;8.13;;
15340;SDS011;7770;52.158;5.372;2023-11-19T14:07:20;31.93;;;8.07;;
15340;SDS011;7770;52.158;5.372;2023-11-19T14:10:06;28.93;;;7.77;;
15340;SDS011;7770;52.158;5.372;2023-11-19T14:12:54;30.07;;;7.70;;
15340;SDS011;7770;52.158;5.372;2023-11-19T14:15:40;30.30;;;7.40;;
15340;SDS011;7770;52.158;5.372;2023-11-19T14:18:26;34.50;;;7.90;;
15340;SDS011;7770;52.158;5.372;2023-11-19T14:21:12;33.83;;;7.60;;
15340;SDS011;7770;52.158;5.372;2023-11-19T14:23:58;28.00;;;7.00;;
15340;SDS011;7770;52.158;5.372;2023-11-19T14:26:45;23.97;;;6.60;;
15340;SDS011;7770;52.158;5.372;2023-11-19T14:29:32;31.30;;;7.53;;
15340;SDS011;7770;52.158;5.372;2023-11-19T14:32:19;29.03;;;7.37;;
15340;SDS011;7770;52.158;5.372;2023-11-19T14:35:05;27.63;;;7.20;;
15340;SDS011;7770;52.158;5.372;2023-11-19T14:37:51;29.37;;;7.20;;
15340;SDS011;7770;52.158;5.372;2023-11-19T14:40:38;24.40;;;7.10;;
15340;SDS011;7770;52.158;5.372;2023-11-19T14:43:24;30.43;;;7.00;;
15340;SDS011;7770;52.158;5.372;2023-11-19T14:46:10;27.27;;;7.13;;
15340;SDS011;7770;52.158;5.372;2023-11-19T14:48:55;29.67;;;7.03;;
15340;SDS011;7770;52.158;5.372;2023-11-19T14:51:41;29.50;;;7.07;;
15340;SDS011;7770;52.158;5.372;2023-11-19T14:54:27;30.27;;;6.83;;
15340;SDS011;7770;52.158;5.372;2023-11-19T14:57:13;24.70;;;6.80;;
15340;SDS011;7770;52.158;5.372;2023-11-19T14:59:59;36.03;;;7.23;;
15340;SDS011;7770;52.158;5.372;2023-11-19T15:02:46;37.63;;;8.40;;
15340;SDS011;7770;52.158;5.372;2023-11-19T15:05:32;28.97;;;7.70;;
15340;SDS011;7770;52.158;5.372;2023-11-19T15:08:18;37.50;;;9.40;;
15340;SDS011;7770;52.158;5.372;2023-11-19T15:11:04;34.40;;;8.00;;
15340;SDS011;7770;52.158;5.372;2023-11-19T15:13:51;33.93;;;7.53;;
15340;SDS011;7770;52.158;5.372;2023-11-19T15:16:37;30.77;;;12.80;;
15340;SDS011;7770;52.158;5.372;2023-11-19T15:19:23;29.77;;;7.97;;
15340;SDS011;7770;52.158;5.372;2023-11-19T15:22:09;32.23;;;8.50;;
15340;SDS011;7770;52.158;5.372;2023-11-19T15:24:56;27.23;;;7.63;;
15340;SDS011;7770;52.158;5.372;2023-11-19T15:27:42;27.63;;;7.90;;
15340;SDS011;7770;52.158;5.372;2023-11-19T15:30:28;31.93;;;7.67;;
15340;SDS011;7770;52.158;5.372;2023-11-19T15:33:14;31.30;;;8.03;;
15340;SDS011;7770;52.158;5.372;2023-11-19T15:36:00;30.60;;;7.80;;
15340;SDS011;7770;52.158;5.372;2023-11-19T15:38:48;28.87;;;7.97;;
15340;SDS011;7770;52.158;5.372;2023-11-19T15:41:34;30.73;;;7.80;;
15340;SDS011;7770;52.158;5.372;2023-11-19T15:44:20;28.47;;;8.30;;
15340;SDS011;7770;52.158;5.372;2023-11-19T15:47:06;29.40;;;6.80;;
15340;SDS011;7770;52.158;5.372;2023-11-19T15:49:52;32.23;;;8.03;;
15340;SDS011;7770;52.158;5.372;2023-11-19T15:52:38;34.30;;;7.57;;
15340;SDS011;7770;52.158;5.372;2023-11-19T15:55:24;27.07;;;7.73;;
15340;SDS011;7770;52.158;5.372;2023-11-19T15:58:10;29.57;;;8.07;;
15340;SDS011;7770;52.158;5.372;2023-11-19T16:00:56;33.27;;;8.23;;
15340;SDS011;7770;52.158;5.372;2023-11-19T16:03:42;32.70;;;7.60;;
15340;SDS011;7770;52.158;5.372;2023-11-19T16:06:28;29.13;;;7.70;;
15340;SDS011;7770;52.158;5.372;2023-11-19T16:09:14;30.87;;;6.80;;
15340;SDS011;7770;52.158;5.372;2023-11-19T16:12:02;31.47;;;7.87;;
15340;SDS011;7770;52.158;5.372;2023-11-19T16:14:48;28.23;;;7.27;;
15340;SDS011;7770;52.158;5.372;2023-11-19T16:17:33;27.53;;;8.90;;
15340;SDS011;7770;52.158;5.372;2023-11-19T16:20:20;66.50;;;40.73;;
15340;SDS011;7770;52.158;5.372;2023-11-19T16:23:06;34.60;;;9.10;;
15340;SDS011;7770;52.158;5.372;2023-11-19T16:25:52;22.97;;;6.50;;
15340;SDS011;7770;52.158;5.372;2023-11-19T16:28:38;43.43;;;17.40;;
15340;SDS011;7770;52.158;5.372;2023-11-19T16:31:24;26.90;;;7.10;;
15340;SDS011;7770;52.158;5.372;2023-11-19T16:34:09;26.93;;;7.53;;
15340;SDS011;7770;52.158;5.372;2023-11-19T16:36:55;25.53;;;7.00;;
15340;SDS011;7770;52.158;5.372;2023-11-19T16:39:41;26.87;;;6.70;;
15340;SDS011;7770;52.158;5.372;2023-11-19T16:42:27;25.77;;;6.47;;
15340;SDS011;7770;52.158;5.372;2023-11-19T16:45:13;24.37;;;7.23;;
15340;SDS011;7770;52.158;5.372;2023-11-19T16:47:59;29.70;;;7.00;;
15340;SDS011;7770;52.158;5.372;2023-11-19T16:50:46;26.23;;;6.63;;
15340;SDS011;7770;52.158;5.372;2023-11-19T16:53:34;27.57;;;6.73;;
15340;SDS011;7770;52.158;5.372;2023-11-19T16:56:19;27.67;;;7.47;;
15340;SDS011;7770;52.158;5.372;2023-11-19T16:59:05;23.63;;;6.50;;